sensor_id;sensor_type;location;lat;lon;timestamp;P1;durP1;ratioP1;P2;durP2;ratioP2
75044;SDS011;63614;56.026;35.960;2023-05-07T00:00:22;7.32;;;4.38;;
75044;SDS011;63614;56.026;35.960;2023-05-07T00:02:48;9.60;;;4.90;;
75044;SDS011;63614;56.026;35.960;2023-05-07T00:05:14;17.35;;;5.45;;
75044;SDS011;63614;56.026;35.960;2023-05-07T00:07:40;13.40;;;4.68;;
75044;SDS011;63614;56.026;35.960;2023-05-07T00:10:06;15.75;;;5.32;;
75044;SDS011;63614;56.026;35.960;2023-05-07T00:12:32;11.35;;;4.85;;
75044;SDS011;63614;56.026;35.960;2023-05-07T00:15:04;12.80;;;5.10;;
75044;SDS011;63614;56.026;35.960;2023-05-07T00:17:33;13.60;;;6.13;;
75044;SDS011;63614;56.026;35.960;2023-05-07T00:19:59;13.65;;;5.70;;
75044;SDS011;63614;56.026;35.960;2023-05-07T00:22:25;13.38;;;6.25;;
75044;SDS011;63614;56.026;35.960;2023-05-07T00:24:50;10.00;;;5.35;;
75044;SDS011;63614;56.026;35.960;2023-05-07T00:27:19;11.07;;;5.65;;
75044;SDS011;63614;56.026;35.960;2023-05-07T00:29:45;11.32;;;5.82;;
75044;SDS011;63614;56.026;35.960;2023-05-07T00:32:11;16.38;;;6.63;;
75044;SDS011;63614;56.026;35.960;2023-05-07T00:34:37;11.27;;;5.57;;
75044;SDS011;63614;56.026;35.960;2023-05-07T00:39:32;14.48;;;5.53;;
75044;SDS011;63614;56.026;35.960;2023-05-07T00:41:59;15.07;;;5.75;;
75044;SDS011;63614;56.026;35.960;2023-05-07T00:44:25;8.50;;;4.80;;
75044;SDS011;63614;56.026;35.960;2023-05-07T00:46:52;9.10;;;5.07;;
75044;SDS011;63614;56.026;35.960;2023-05-07T00:49:19;8.50;;;5.38;;
75044;SDS011;63614;56.026;35.960;2023-05-07T00:51:45;9.02;;;4.93;;
75044;SDS011;63614;56.026;35.960;2023-05-07T00:54:12;14.27;;;5.80;;
75044;SDS011;63614;56.026;35.960;2023-05-07T00:56:39;10.52;;;5.35;;
75044;SDS011;63614;56.026;35.960;2023-05-07T00:59:05;7.68;;;4.50;;
75044;SDS011;63614;56.026;35.960;2023-05-07T01:01:31;9.02;;;5.07;;
75044;SDS011;63614;56.026;35.960;2023-05-07T01:03:57;9.38;;;5.22;;
75044;SDS011;63614;56.026;35.960;2023-05-07T01:06:23;12.68;;;5.55;;
75044;SDS011;63614;56.026;35.960;2023-05-07T01:08:53;12.80;;;6.28;;
75044;SDS011;63614;56.026;35.960;2023-05-07T01:11:22;12.75;;;5.75;;
75044;SDS011;63614;56.026;35.960;2023-05-07T01:13:48;13.68;;;5.60;;
75044;SDS011;63614;56.026;35.960;2023-05-07T01:16:15;8.50;;;5.17;;
75044;SDS011;63614;56.026;35.960;2023-05-07T01:18:41;11.18;;;5.38;;
75044;SDS011;63614;56.026;35.960;2023-05-07T01:21:07;10.00;;;5.22;;
75044;SDS011;63614;56.026;35.960;2023-05-07T01:23:36;9.50;;;5.47;;
75044;SDS011;63614;56.026;35.960;2023-05-07T01:26:03;17.20;;;5.30;;
75044;SDS011;63614;56.026;35.960;2023-05-07T01:28:31;9.43;;;5.50;;
75044;SDS011;63614;56.026;35.960;2023-05-07T01:33:30;16.15;;;5.38;;
75044;SDS011;63614;56.026;35.960;2023-05-07T01:35:59;12.98;;;6.03;;
75044;SDS011;63614;56.026;35.960;2023-05-07T01:38:27;11.73;;;5.72;;
75044;SDS011;63614;56.026;35.960;2023-05-07T01:40:54;16.23;;;5.47;;
75044;SDS011;63614;56.026;35.960;2023-05-07T01:43:21;10.47;;;6.50;;
75044;SDS011;63614;56.026;35.960;2023-05-07T01:45:47;10.02;;;6.07;;
75044;SDS011;63614;56.026;35.960;2023-05-07T01:50:41;13.93;;;6.22;;
75044;SDS011;63614;56.026;35.960;2023-05-07T01:53:08;10.88;;;6.68;;
75044;SDS011;63614;56.026;35.960;2023-05-07T01:55:34;14.43;;;6.60;;
75044;SDS011;63614;56.026;35.960;2023-05-07T01:58:02;10.90;;;6.15;;
75044;SDS011;63614;56.026;35.960;2023-05-07T02:00:28;11.82;;;6.97;;
75044;SDS011;63614;56.026;35.960;2023-05-07T02:02:54;15.65;;;7.25;;
75044;SDS011;63614;56.026;35.960;2023-05-07T02:05:38;12.43;;;7.00;;
75044;SDS011;63614;56.026;35.960;2023-05-07T02:08:13;16.83;;;6.57;;
75044;SDS011;63614;56.026;35.960;2023-05-07T02:10:39;14.00;;;6.55;;
75044;SDS011;63614;56.026;35.960;2023-05-07T02:13:06;9.02;;;5.80;;
75044;SDS011;63614;56.026;35.960;2023-05-07T02:15:31;11.63;;;5.45;;
75044;SDS011;63614;56.026;35.960;2023-05-07T02:18:04;13.95;;;5.53;;
75044;SDS011;63614;56.026;35.960;2023-05-07T02:20:32;13.27;;;5.85;;
75044;SDS011;63614;56.026;35.960;2023-05-07T02:22:58;15.23;;;6.40;;
75044;SDS011;63614;56.026;35.960;2023-05-07T02:25:26;10.13;;;5.90;;
75044;SDS011;63614;56.026;35.960;2023-05-07T02:27:52;14.32;;;6.25;;
75044;SDS011;63614;56.026;35.960;2023-05-07T02:30:24;14.82;;;6.35;;
75044;SDS011;63614;56.026;35.960;2023-05-07T02:32:55;13.07;;;6.82;;
75044;SDS011;63614;56.026;35.960;2023-05-07T02:35:25;14.43;;;6.75;;
75044;SDS011;63614;56.026;35.960;2023-05-07T02:37:52;10.27;;;6.18;;
75044;SDS011;63614;56.026;35.960;2023-05-07T02:40:18;16.35;;;6.35;;
75044;SDS011;63614;56.026;35.960;2023-05-07T02:42:44;10.43;;;5.80;;
75044;SDS011;63614;56.026;35.960;2023-05-07T02:45:10;12.10;;;7.05;;
75044;SDS011;63614;56.026;35.960;2023-05-07T02:47:37;10.15;;;6.63;;
75044;SDS011;63614;56.026;35.960;2023-05-07T02:50:03;10.00;;;6.10;;
75044;SDS011;63614;56.026;35.960;2023-05-07T02:52:30;13.63;;;6.50;;
75044;SDS011;63614;56.026;35.960;2023-05-07T02:54:56;17.83;;;6.80;;
75044;SDS011;63614;56.026;35.960;2023-05-07T02:57:22;10.40;;;6.53;;
75044;SDS011;63614;56.026;35.960;2023-05-07T02:59:47;14.52;;;7.43;;
75044;SDS011;63614;56.026;35.960;2023-05-07T03:02:14;29.75;;;8.30;;
75044;SDS011;63614;56.026;35.960;2023-05-07T03:04:40;19.95;;;8.23;;
75044;SDS011;63614;56.026;35.960;2023-05-07T03:07:07;10.52;;;6.80;;
75044;SDS011;63614;56.026;35.960;2023-05-07T03:09:32;16.13;;;6.32;;
75044;SDS011;63614;56.026;35.960;2023-05-07T03:11:58;21.63;;;6.35;;
75044;SDS011;63614;56.026;35.960;2023-05-07T03:14:24;14.13;;;6.95;;
75044;SDS011;63614;56.026;35.960;2023-05-07T03:16:50;15.85;;;7.63;;
75044;SDS011;63614;56.026;35.960;2023-05-07T03:19:16;17.83;;;6.50;;
75044;SDS011;63614;56.026;35.960;2023-05-07T03:21:42;12.32;;;6.50;;
75044;SDS011;63614;56.026;35.960;2023-05-07T03:24:07;9.82;;;6.30;;
75044;SDS011;63614;56.026;35.960;2023-05-07T03:26:33;13.20;;;6.43;;
75044;SDS011;63614;56.026;35.960;2023-05-07T03:28:59;12.45;;;6.40;;
75044;SDS011;63614;56.026;35.960;2023-05-07T03:31:28;11.75;;;5.78;;
75044;SDS011;63614;56.026;35.960;2023-05-07T03:33:55;10.82;;;6.03;;
75044;SDS011;63614;56.026;35.960;2023-05-07T03:36:23;13.25;;;6.88;;
75044;SDS011;63614;56.026;35.960;2023-05-07T03:38:49;10.40;;;6.33;;
75044;SDS011;63614;56.026;35.960;2023-05-07T03:41:19;11.43;;;6.20;;
75044;SDS011;63614;56.026;35.960;2023-05-07T03:43:46;11.65;;;6.60;;
75044;SDS011;63614;56.026;35.960;2023-05-07T03:46:12;12.35;;;6.18;;
75044;SDS011;63614;56.026;35.960;2023-05-07T03:48:38;24.48;;;6.55;;
75044;SDS011;63614;56.026;35.960;2023-05-07T03:51:05;14.68;;;4.60;;
75044;SDS011;63614;56.026;35.960;2023-05-07T03:55:58;15.93;;;5.18;;
75044;SDS011;63614;56.026;35.960;2023-05-07T03:58:23;16.67;;;4.65;;
75044;SDS011;63614;56.026;35.960;2023-05-07T04:00:50;7.10;;;3.92;;
75044;SDS011;63614;56.026;35.960;2023-05-07T04:03:24;8.05;;;3.90;;
75044;SDS011;63614;56.026;35.960;2023-05-07T04:05:50;9.90;;;3.70;;
75044;SDS011;63614;56.026;35.960;2023-05-07T04:08:16;10.40;;;3.35;;
75044;SDS011;63614;56.026;35.960;2023-05-07T04:10:46;14.10;;;3.70;;
75044;SDS011;63614;56.026;35.960;2023-05-07T04:13:12;13.68;;;2.92;;
75044;SDS011;63614;56.026;35.960;2023-05-07T04:15:38;5.88;;;2.88;;
75044;SDS011;63614;56.026;35.960;2023-05-07T04:18:08;7.07;;;3.05;;
75044;SDS011;63614;56.026;35.960;2023-05-07T04:20:35;15.18;;;3.20;;
75044;SDS011;63614;56.026;35.960;2023-05-07T04:23:07;13.52;;;3.70;;
75044;SDS011;63614;56.026;35.960;2023-05-07T04:25:33;11.38;;;3.05;;
75044;SDS011;63614;56.026;35.960;2023-05-07T04:28:07;10.35;;;3.40;;
75044;SDS011;63614;56.026;35.960;2023-05-07T04:30:36;10.13;;;3.15;;
75044;SDS011;63614;56.026;35.960;2023-05-07T04:33:04;5.35;;;2.90;;
75044;SDS011;63614;56.026;35.960;2023-05-07T04:35:32;8.13;;;2.88;;
75044;SDS011;63614;56.026;35.960;2023-05-07T04:37:59;11.27;;;2.63;;
75044;SDS011;63614;56.026;35.960;2023-05-07T04:40:25;3.90;;;2.45;;
75044;SDS011;63614;56.026;35.960;2023-05-07T04:42:51;4.95;;;2.60;;
75044;SDS011;63614;56.026;35.960;2023-05-07T04:45:18;5.72;;;2.53;;
75044;SDS011;63614;56.026;35.960;2023-05-07T04:47:46;16.52;;;3.15;;
75044;SDS011;63614;56.026;35.960;2023-05-07T04:50:12;6.73;;;2.77;;
75044;SDS011;63614;56.026;35.960;2023-05-07T04:52:40;4.07;;;2.53;;
75044;SDS011;63614;56.026;35.960;2023-05-07T04:55:07;7.30;;;2.78;;
75044;SDS011;63614;56.026;35.960;2023-05-07T04:57:37;13.80;;;2.92;;
75044;SDS011;63614;56.026;35.960;2023-05-07T05:00:05;4.03;;;2.67;;
75044;SDS011;63614;56.026;35.960;2023-05-07T05:02:34;2.90;;;2.17;;
75044;SDS011;63614;56.026;35.960;2023-05-07T05:05:01;4.20;;;2.60;;
75044;SDS011;63614;56.026;35.960;2023-05-07T05:10:19;3.97;;;2.60;;
75044;SDS011;63614;56.026;35.960;2023-05-07T05:12:46;6.67;;;2.40;;
75044;SDS011;63614;56.026;35.960;2023-05-07T05:15:12;5.65;;;2.50;;
75044;SDS011;63614;56.026;35.960;2023-05-07T05:17:38;6.17;;;2.43;;
75044;SDS011;63614;56.026;35.960;2023-05-07T05:20:05;9.52;;;2.88;;
75044;SDS011;63614;56.026;35.960;2023-05-07T05:22:32;6.82;;;2.60;;
75044;SDS011;63614;56.026;35.960;2023-05-07T05:29:54;4.60;;;2.22;;
75044;SDS011;63614;56.026;35.960;2023-05-07T05:32:38;2.83;;;2.10;;
75044;SDS011;63614;56.026;35.960;2023-05-07T05:35:05;4.57;;;2.40;;
75044;SDS011;63614;56.026;35.960;2023-05-07T05:37:31;3.00;;;2.20;;
75044;SDS011;63614;56.026;35.960;2023-05-07T05:39:59;3.80;;;2.40;;
75044;SDS011;63614;56.026;35.960;2023-05-07T05:42:30;4.55;;;2.20;;
75044;SDS011;63614;56.026;35.960;2023-05-07T05:45:14;5.18;;;2.53;;
75044;SDS011;63614;56.026;35.960;2023-05-07T05:47:40;5.60;;;2.40;;
75044;SDS011;63614;56.026;35.960;2023-05-07T05:50:06;3.28;;;1.90;;
75044;SDS011;63614;56.026;35.960;2023-05-07T05:52:33;6.18;;;2.15;;
75044;SDS011;63614;56.026;35.960;2023-05-07T05:54:59;19.35;;;2.55;;
75044;SDS011;63614;56.026;35.960;2023-05-07T05:57:25;8.88;;;1.80;;
75044;SDS011;63614;56.026;35.960;2023-05-07T05:59:51;2.60;;;1.50;;
75044;SDS011;63614;56.026;35.960;2023-05-07T06:02:17;16.30;;;2.47;;
75044;SDS011;63614;56.026;35.960;2023-05-07T06:04:43;4.78;;;1.60;;
75044;SDS011;63614;56.026;35.960;2023-05-07T06:07:13;5.78;;;1.58;;
75044;SDS011;63614;56.026;35.960;2023-05-07T06:09:40;2.65;;;1.50;;
75044;SDS011;63614;56.026;35.960;2023-05-07T06:12:06;2.85;;;1.40;;
75044;SDS011;63614;56.026;35.960;2023-05-07T06:14:32;29.10;;;7.93;;
75044;SDS011;63614;56.026;35.960;2023-05-07T06:16:58;8.30;;;3.50;;
75044;SDS011;63614;56.026;35.960;2023-05-07T06:19:25;18.75;;;8.65;;
75044;SDS011;63614;56.026;35.960;2023-05-07T06:21:55;5.05;;;2.83;;
75044;SDS011;63614;56.026;35.960;2023-05-07T06:24:27;3.45;;;1.77;;
75044;SDS011;63614;56.026;35.960;2023-05-07T06:26:53;5.07;;;1.60;;
75044;SDS011;63614;56.026;35.960;2023-05-07T06:29:20;4.70;;;1.60;;
75044;SDS011;63614;56.026;35.960;2023-05-07T06:31:46;3.47;;;1.60;;
75044;SDS011;63614;56.026;35.960;2023-05-07T06:34:11;2.08;;;1.40;;
75044;SDS011;63614;56.026;35.960;2023-05-07T06:36:40;2.25;;;1.38;;
75044;SDS011;63614;56.026;35.960;2023-05-07T06:39:28;3.53;;;1.20;;
75044;SDS011;63614;56.026;35.960;2023-05-07T06:41:54;7.28;;;1.70;;
75044;SDS011;63614;56.026;35.960;2023-05-07T06:44:24;2.25;;;1.25;;
75044;SDS011;63614;56.026;35.960;2023-05-07T06:47:16;13.45;;;1.80;;
75044;SDS011;63614;56.026;35.960;2023-05-07T06:49:45;5.20;;;1.50;;
75044;SDS011;63614;56.026;35.960;2023-05-07T06:52:14;5.82;;;1.80;;
75044;SDS011;63614;56.026;35.960;2023-05-07T06:54:40;5.05;;;1.90;;
75044;SDS011;63614;56.026;35.960;2023-05-07T06:57:07;3.13;;;1.52;;
75044;SDS011;63614;56.026;35.960;2023-05-07T06:59:33;4.38;;;1.67;;
75044;SDS011;63614;56.026;35.960;2023-05-07T07:01:59;2.97;;;1.58;;
75044;SDS011;63614;56.026;35.960;2023-05-07T07:04:25;3.65;;;1.40;;
75044;SDS011;63614;56.026;35.960;2023-05-07T07:06:59;3.75;;;1.95;;
75044;SDS011;63614;56.026;35.960;2023-05-07T07:09:25;4.72;;;1.80;;
75044;SDS011;63614;56.026;35.960;2023-05-07T07:11:52;3.15;;;1.58;;
75044;SDS011;63614;56.026;35.960;2023-05-07T07:14:18;4.32;;;1.90;;
75044;SDS011;63614;56.026;35.960;2023-05-07T07:16:48;2.10;;;1.60;;
75044;SDS011;63614;56.026;35.960;2023-05-07T07:19:16;7.68;;;1.70;;
75044;SDS011;63614;56.026;35.960;2023-05-07T07:21:42;3.08;;;1.50;;
75044;SDS011;63614;56.026;35.960;2023-05-07T07:24:13;2.35;;;1.58;;
75044;SDS011;63614;56.026;35.960;2023-05-07T07:26:45;6.55;;;2.90;;
75044;SDS011;63614;56.026;35.960;2023-05-07T07:29:12;7.05;;;1.65;;
75044;SDS011;63614;56.026;35.960;2023-05-07T07:34:06;9.93;;;1.60;;
75044;SDS011;63614;56.026;35.960;2023-05-07T07:36:32;7.78;;;3.17;;
75044;SDS011;63614;56.026;35.960;2023-05-07T07:38:58;4.40;;;1.77;;
75044;SDS011;63614;56.026;35.960;2023-05-07T07:41:24;1.98;;;1.35;;
75044;SDS011;63614;56.026;35.960;2023-05-07T07:43:50;7.18;;;1.67;;
75044;SDS011;63614;56.026;35.960;2023-05-07T07:46:18;3.85;;;1.45;;
75044;SDS011;63614;56.026;35.960;2023-05-07T07:48:44;4.38;;;1.30;;
75044;SDS011;63614;56.026;35.960;2023-05-07T07:51:10;4.47;;;1.55;;
75044;SDS011;63614;56.026;35.960;2023-05-07T07:53:40;2.35;;;1.52;;
75044;SDS011;63614;56.026;35.960;2023-05-07T07:56:06;4.47;;;1.70;;
75044;SDS011;63614;56.026;35.960;2023-05-07T07:58:33;4.20;;;1.75;;
75044;SDS011;63614;56.026;35.960;2023-05-07T08:01:01;5.32;;;1.70;;
75044;SDS011;63614;56.026;35.960;2023-05-07T08:03:32;3.25;;;1.40;;
75044;SDS011;63614;56.026;35.960;2023-05-07T08:06:00;2.00;;;1.23;;
75044;SDS011;63614;56.026;35.960;2023-05-07T08:08:26;1.90;;;1.30;;
75044;SDS011;63614;56.026;35.960;2023-05-07T08:10:53;11.98;;;1.60;;
75044;SDS011;63614;56.026;35.960;2023-05-07T08:13:27;2.67;;;1.55;;
75044;SDS011;63614;56.026;35.960;2023-05-07T08:15:53;4.47;;;1.65;;
75044;SDS011;63614;56.026;35.960;2023-05-07T08:18:19;10.05;;;1.80;;
75044;SDS011;63614;56.026;35.960;2023-05-07T08:20:45;9.38;;;1.77;;
75044;SDS011;63614;56.026;35.960;2023-05-07T08:23:17;3.55;;;1.48;;
75044;SDS011;63614;56.026;35.960;2023-05-07T08:25:45;3.10;;;1.63;;
75044;SDS011;63614;56.026;35.960;2023-05-07T08:28:12;4.00;;;1.60;;
75044;SDS011;63614;56.026;35.960;2023-05-07T08:30:39;7.30;;;1.83;;
75044;SDS011;63614;56.026;35.960;2023-05-07T08:33:12;3.03;;;1.85;;
75044;SDS011;63614;56.026;35.960;2023-05-07T08:35:38;9.68;;;1.58;;
75044;SDS011;63614;56.026;35.960;2023-05-07T08:40:33;3.58;;;1.50;;
75044;SDS011;63614;56.026;35.960;2023-05-07T08:43:07;7.03;;;1.20;;
75044;SDS011;63614;56.026;35.960;2023-05-07T08:45:36;2.97;;;1.30;;
75044;SDS011;63614;56.026;35.960;2023-05-07T08:48:14;2.20;;;1.20;;
75044;SDS011;63614;56.026;35.960;2023-05-07T08:50:42;2.95;;;1.40;;
75044;SDS011;63614;56.026;35.960;2023-05-07T08:53:10;5.05;;;1.40;;
75044;SDS011;63614;56.026;35.960;2023-05-07T08:55:37;6.40;;;1.60;;
75044;SDS011;63614;56.026;35.960;2023-05-07T08:58:03;3.13;;;1.50;;
75044;SDS011;63614;56.026;35.960;2023-05-07T09:00:31;4.40;;;1.42;;
75044;SDS011;63614;56.026;35.960;2023-05-07T09:03:00;3.13;;;1.10;;
75044;SDS011;63614;56.026;35.960;2023-05-07T09:05:26;4.10;;;1.60;;
75044;SDS011;63614;56.026;35.960;2023-05-07T09:07:52;5.70;;;2.00;;
75044;SDS011;63614;56.026;35.960;2023-05-07T09:10:22;6.75;;;1.77;;
75044;SDS011;63614;56.026;35.960;2023-05-07T09:12:49;3.00;;;1.38;;
75044;SDS011;63614;56.026;35.960;2023-05-07T09:15:17;4.25;;;1.50;;
75044;SDS011;63614;56.026;35.960;2023-05-07T09:17:44;4.75;;;1.50;;
75044;SDS011;63614;56.026;35.960;2023-05-07T09:20:10;6.18;;;1.35;;
75044;SDS011;63614;56.026;35.960;2023-05-07T09:22:36;1.80;;;1.30;;
75044;SDS011;63614;56.026;35.960;2023-05-07T09:25:06;2.50;;;1.40;;
75044;SDS011;63614;56.026;35.960;2023-05-07T09:27:37;3.92;;;1.52;;
75044;SDS011;63614;56.026;35.960;2023-05-07T09:30:04;7.53;;;1.80;;
75044;SDS011;63614;56.026;35.960;2023-05-07T09:32:36;11.70;;;1.80;;
75044;SDS011;63614;56.026;35.960;2023-05-07T09:35:17;4.65;;;1.30;;
75044;SDS011;63614;56.026;35.960;2023-05-07T09:37:46;2.00;;;1.40;;
75044;SDS011;63614;56.026;35.960;2023-05-07T09:40:23;2.10;;;1.30;;
75044;SDS011;63614;56.026;35.960;2023-05-07T09:45:27;8.68;;;1.30;;
75044;SDS011;63614;56.026;35.960;2023-05-07T09:47:56;13.57;;;2.33;;
75044;SDS011;63614;56.026;35.960;2023-05-07T09:50:32;2.53;;;1.40;;
75044;SDS011;63614;56.026;35.960;2023-05-07T09:53:03;4.28;;;1.75;;
75044;SDS011;63614;56.026;35.960;2023-05-07T09:55:32;7.30;;;1.85;;
75044;SDS011;63614;56.026;35.960;2023-05-07T09:57:59;2.50;;;1.40;;
75044;SDS011;63614;56.026;35.960;2023-05-07T10:00:28;8.20;;;1.83;;
75044;SDS011;63614;56.026;35.960;2023-05-07T10:03:03;11.32;;;1.60;;
75044;SDS011;63614;56.026;35.960;2023-05-07T10:05:40;2.90;;;1.30;;
75044;SDS011;63614;56.026;35.960;2023-05-07T10:08:09;2.33;;;1.35;;
75044;SDS011;63614;56.026;35.960;2023-05-07T10:10:37;6.18;;;1.38;;
75044;SDS011;63614;56.026;35.960;2023-05-07T10:13:06;2.40;;;1.25;;
75044;SDS011;63614;56.026;35.960;2023-05-07T10:15:37;8.18;;;1.30;;
75044;SDS011;63614;56.026;35.960;2023-05-07T10:18:04;14.90;;;1.92;;
75044;SDS011;63614;56.026;35.960;2023-05-07T10:22:59;5.63;;;1.63;;
75044;SDS011;63614;56.026;35.960;2023-05-07T10:25:35;3.53;;;1.45;;
75044;SDS011;63614;56.026;35.960;2023-05-07T10:28:07;2.00;;;1.40;;
75044;SDS011;63614;56.026;35.960;2023-05-07T10:30:51;4.03;;;1.50;;
75044;SDS011;63614;56.026;35.960;2023-05-07T10:33:41;18.75;;;1.70;;
75044;SDS011;63614;56.026;35.960;2023-05-07T10:36:11;4.85;;;1.48;;
75044;SDS011;63614;56.026;35.960;2023-05-07T10:38:37;3.15;;;1.35;;
75044;SDS011;63614;56.026;35.960;2023-05-07T10:41:05;4.80;;;1.40;;
75044;SDS011;63614;56.026;35.960;2023-05-07T10:43:40;1.95;;;1.10;;
75044;SDS011;63614;56.026;35.960;2023-05-07T10:46:15;10.40;;;1.60;;
75044;SDS011;63614;56.026;35.960;2023-05-07T10:51:33;4.07;;;1.52;;
75044;SDS011;63614;56.026;35.960;2023-05-07T10:56:43;4.60;;;1.40;;
75044;SDS011;63614;56.026;35.960;2023-05-07T11:04:32;12.05;;;1.70;;
75044;SDS011;63614;56.026;35.960;2023-05-07T11:10:01;6.35;;;1.42;;
75044;SDS011;63614;56.026;35.960;2023-05-07T11:12:55;3.47;;;1.35;;
75044;SDS011;63614;56.026;35.960;2023-05-07T11:15:46;2.90;;;1.42;;
75044;SDS011;63614;56.026;35.960;2023-05-07T11:18:23;1.60;;;1.10;;
75044;SDS011;63614;56.026;35.960;2023-05-07T11:26:26;5.22;;;1.30;;
75044;SDS011;63614;56.026;35.960;2023-05-07T11:28:53;2.85;;;1.50;;
75044;SDS011;63614;56.026;35.960;2023-05-07T11:31:25;3.53;;;1.40;;
75044;SDS011;63614;56.026;35.960;2023-05-07T11:33:55;2.95;;;1.67;;
75044;SDS011;63614;56.026;35.960;2023-05-07T11:36:24;4.82;;;1.80;;
75044;SDS011;63614;56.026;35.960;2023-05-07T11:38:52;3.83;;;2.10;;
75044;SDS011;63614;56.026;35.960;2023-05-07T11:41:18;3.28;;;1.55;;
75044;SDS011;63614;56.026;35.960;2023-05-07T11:43:56;3.75;;;1.80;;
75044;SDS011;63614;56.026;35.960;2023-05-07T11:46:23;8.63;;;1.60;;
75044;SDS011;63614;56.026;35.960;2023-05-07T11:48:57;2.35;;;1.27;;
75044;SDS011;63614;56.026;35.960;2023-05-07T11:51:23;2.58;;;1.30;;
75044;SDS011;63614;56.026;35.960;2023-05-07T11:53:53;2.47;;;1.38;;
75044;SDS011;63614;56.026;35.960;2023-05-07T11:56:19;2.80;;;1.40;;
75044;SDS011;63614;56.026;35.960;2023-05-07T11:58:46;6.10;;;1.20;;
75044;SDS011;63614;56.026;35.960;2023-05-07T12:01:13;3.10;;;1.02;;
75044;SDS011;63614;56.026;35.960;2023-05-07T12:06:08;2.78;;;1.40;;
75044;SDS011;63614;56.026;35.960;2023-05-07T12:08:36;3.95;;;1.80;;
75044;SDS011;63614;56.026;35.960;2023-05-07T12:11:03;2.13;;;1.33;;
75044;SDS011;63614;56.026;35.960;2023-05-07T12:13:33;4.25;;;1.75;;
75044;SDS011;63614;56.026;35.960;2023-05-07T12:15:59;4.20;;;2.13;;
75044;SDS011;63614;56.026;35.960;2023-05-07T12:18:26;2.60;;;1.27;;
75044;SDS011;63614;56.026;35.960;2023-05-07T12:20:52;2.42;;;1.30;;
75044;SDS011;63614;56.026;35.960;2023-05-07T12:23:18;1.95;;;1.25;;
75044;SDS011;63614;56.026;35.960;2023-05-07T12:25:45;3.45;;;1.40;;
75044;SDS011;63614;56.026;35.960;2023-05-07T12:28:19;3.42;;;1.27;;
75044;SDS011;63614;56.026;35.960;2023-05-07T12:30:46;1.75;;;1.13;;
75044;SDS011;63614;56.026;35.960;2023-05-07T12:33:17;2.03;;;1.30;;
75044;SDS011;63614;56.026;35.960;2023-05-07T12:35:47;3.72;;;1.70;;
75044;SDS011;63614;56.026;35.960;2023-05-07T12:38:13;3.53;;;1.58;;
75044;SDS011;63614;56.026;35.960;2023-05-07T12:40:52;3.90;;;1.55;;
75044;SDS011;63614;56.026;35.960;2023-05-07T12:43:20;21.45;;;2.10;;
75044;SDS011;63614;56.026;35.960;2023-05-07T12:45:50;3.38;;;1.40;;
75044;SDS011;63614;56.026;35.960;2023-05-07T12:48:17;4.72;;;1.50;;
75044;SDS011;63614;56.026;35.960;2023-05-07T12:50:44;27.75;;;2.33;;
75044;SDS011;63614;56.026;35.960;2023-05-07T12:53:10;4.78;;;1.55;;
75044;SDS011;63614;56.026;35.960;2023-05-07T12:55:41;2.28;;;1.40;;
75044;SDS011;63614;56.026;35.960;2023-05-07T12:58:19;2.13;;;1.25;;
75044;SDS011;63614;56.026;35.960;2023-05-07T13:00:56;2.15;;;1.20;;
75044;SDS011;63614;56.026;35.960;2023-05-07T13:03:28;2.20;;;1.40;;
75044;SDS011;63614;56.026;35.960;2023-05-07T13:05:56;1.90;;;1.10;;
75044;SDS011;63614;56.026;35.960;2023-05-07T13:08:28;1.90;;;1.10;;
75044;SDS011;63614;56.026;35.960;2023-05-07T13:11:00;4.55;;;1.70;;
75044;SDS011;63614;56.026;35.960;2023-05-07T13:13:30;2.95;;;1.27;;
75044;SDS011;63614;56.026;35.960;2023-05-07T13:15:56;2.78;;;1.60;;
75044;SDS011;63614;56.026;35.960;2023-05-07T13:18:23;9.98;;;1.40;;
75044;SDS011;63614;56.026;35.960;2023-05-07T13:20:50;7.38;;;1.40;;
75044;SDS011;63614;56.026;35.960;2023-05-07T13:23:17;2.92;;;1.25;;
75044;SDS011;63614;56.026;35.960;2023-05-07T13:25:43;3.30;;;1.20;;
75044;SDS011;63614;56.026;35.960;2023-05-07T13:28:08;2.28;;;1.50;;
75044;SDS011;63614;56.026;35.960;2023-05-07T13:30:34;3.65;;;1.38;;
75044;SDS011;63614;56.026;35.960;2023-05-07T13:33:03;6.40;;;1.40;;
75044;SDS011;63614;56.026;35.960;2023-05-07T13:35:31;2.20;;;1.20;;
75044;SDS011;63614;56.026;35.960;2023-05-07T13:37:58;4.22;;;1.80;;
75044;SDS011;63614;56.026;35.960;2023-05-07T13:40:24;4.10;;;1.75;;
75044;SDS011;63614;56.026;35.960;2023-05-07T13:42:50;4.70;;;1.50;;
75044;SDS011;63614;56.026;35.960;2023-05-07T13:45:17;3.85;;;1.38;;
75044;SDS011;63614;56.026;35.960;2023-05-07T13:50:10;5.40;;;1.40;;
75044;SDS011;63614;56.026;35.960;2023-05-07T13:52:37;2.20;;;1.20;;
75044;SDS011;63614;56.026;35.960;2023-05-07T13:55:05;2.42;;;1.20;;
75044;SDS011;63614;56.026;35.960;2023-05-07T13:57:31;2.25;;;1.40;;
75044;SDS011;63614;56.026;35.960;2023-05-07T13:59:57;3.90;;;1.38;;
75044;SDS011;63614;56.026;35.960;2023-05-07T14:02:22;3.90;;;1.52;;
75044;SDS011;63614;56.026;35.960;2023-05-07T14:04:48;12.20;;;2.35;;
75044;SDS011;63614;56.026;35.960;2023-05-07T14:07:14;4.25;;;1.70;;
75044;SDS011;63614;56.026;35.960;2023-05-07T14:09:40;3.10;;;1.60;;
75044;SDS011;63614;56.026;35.960;2023-05-07T14:12:07;4.38;;;1.88;;
75044;SDS011;63614;56.026;35.960;2023-05-07T14:14:32;2.93;;;1.47;;
75044;SDS011;63614;56.026;35.960;2023-05-07T14:16:58;4.60;;;1.77;;
75044;SDS011;63614;56.026;35.960;2023-05-07T14:19:24;2.05;;;1.17;;
75044;SDS011;63614;56.026;35.960;2023-05-07T14:21:50;4.65;;;1.40;;
75044;SDS011;63614;56.026;35.960;2023-05-07T14:24:16;5.28;;;1.30;;
75044;SDS011;63614;56.026;35.960;2023-05-07T14:26:42;4.03;;;1.77;;
75044;SDS011;63614;56.026;35.960;2023-05-07T14:29:10;4.07;;;2.00;;
75044;SDS011;63614;56.026;35.960;2023-05-07T14:31:36;3.10;;;2.08;;
75044;SDS011;63614;56.026;35.960;2023-05-07T14:34:02;4.18;;;1.58;;
75044;SDS011;63614;56.026;35.960;2023-05-07T14:36:28;2.97;;;1.08;;
75044;SDS011;63614;56.026;35.960;2023-05-07T14:38:55;2.40;;;1.27;;
75044;SDS011;63614;56.026;35.960;2023-05-07T14:41:22;9.00;;;1.30;;
75044;SDS011;63614;56.026;35.960;2023-05-07T14:43:48;2.92;;;1.30;;
75044;SDS011;63614;56.026;35.960;2023-05-07T14:46:17;4.93;;;1.40;;
75044;SDS011;63614;56.026;35.960;2023-05-07T14:48:43;9.98;;;1.67;;
75044;SDS011;63614;56.026;35.960;2023-05-07T14:51:11;7.18;;;1.70;;
75044;SDS011;63614;56.026;35.960;2023-05-07T14:56:06;4.28;;;1.65;;
75044;SDS011;63614;56.026;35.960;2023-05-07T14:58:35;7.15;;;2.45;;
75044;SDS011;63614;56.026;35.960;2023-05-07T15:01:00;5.03;;;2.70;;
75044;SDS011;63614;56.026;35.960;2023-05-07T15:03:27;5.63;;;2.03;;
75044;SDS011;63614;56.026;35.960;2023-05-07T15:05:53;3.92;;;1.65;;
75044;SDS011;63614;56.026;35.960;2023-05-07T15:08:19;2.10;;;1.30;;
75044;SDS011;63614;56.026;35.960;2023-05-07T15:10:45;2.63;;;1.40;;
75044;SDS011;63614;56.026;35.960;2023-05-07T15:13:11;3.05;;;1.20;;
75044;SDS011;63614;56.026;35.960;2023-05-07T15:15:38;4.65;;;1.38;;
75044;SDS011;63614;56.026;35.960;2023-05-07T15:18:04;8.77;;;2.00;;
75044;SDS011;63614;56.026;35.960;2023-05-07T15:20:30;5.10;;;1.55;;
75044;SDS011;63614;56.026;35.960;2023-05-07T15:22:56;2.70;;;1.40;;
75044;SDS011;63614;56.026;35.960;2023-05-07T15:25:23;3.58;;;1.70;;
75044;SDS011;63614;56.026;35.960;2023-05-07T15:27:49;4.50;;;1.90;;
75044;SDS011;63614;56.026;35.960;2023-05-07T15:30:15;5.93;;;1.98;;